Huvudsida
METAR-TAF:

METAR-TAF

Flygplatser :

Stockholm-Västerås flygplats

Västerås, Sverige

latitud: 59-35N, longitud: 016-38E, höjd: 6 m

Aktuellt väderrapport

Denna rapport gjordes för 43 minuter sedan, klockan 22:20 UTC
Vind 4 kt från nord
Temperatur -11°C
Fuktighet 85%
Tryck 1013 hPa
Sikt: 3800 m

METAR: ESOW 232220Z AUTO 01004KT 3800 NCD M11/M13 Q1013

Tid: 00:03 (23:03 UTC)

Väderprognos

Denna rapport gjordes för 8 timmar och 39 minuter sedan, klockan 14:24 UTC
Prognos gäller från 23 kl. 14 UTC till 23 kl. 15 UTC
Vind 2 kt varierande vindriktning
Sikt: 0300 m
på en höjd av 200 ft
underkyld dimma
Temporärt
från 23 kl. 14 UTC till 23 kl. 15 UTC
Sikt: 3000 m
Spridda moln på en höjd av 400 ft
Brutna moln på en höjd av 4500 ft
fuktdis

TAF: ESOW 231424Z 2314/2315 VRB02KT 0300 FZFG VV002 TEMPO 2314/2315 3000 BR SCT004 BKN045

Aktuella väderrapporter och prognoser från 4000 flygplatser (METAR- och TAF-rapporter).

De tillgängliga stationerna syns som gula och röda prickar på kartan.

För musen över prickarna för att se namnen på stationerna.

Klicka sedan för att få väderrapporter och prognoser.

För att ändra kartan: Klicka på de gröna knapparna med ett svart kors på för att zooma in; den gröna knappen med ett streck på för att zooma ut; eller på de gröna pilarna för angränsande kartor.


METAR-TAF: